Time;durP1;ratioP1;P1;durP2;ratioP2;P2;SDS_P1;SDS_P2;PMS_P1;PMS_P2;Temp;Humidity;BMP_temperature;BMP_pressure;BME280_temperature;BME280_humidity;BME280_pressure;Samples;Min_cycle;Max_cycle;Signal;HPM_P1;HPM_P2
2023/06/12 00:01:32;;;;;;;0.70;0.70;;;;;;;20.97;100.00;99534.41;5075072;28;20232;-74
2023/06/12 00:04:00;;;;;;;0.80;0.80;;;;;;;21.38;100.00;99597.97;5039803;28;20646;-75
2023/06/12 00:06:28;;;;;;;0.70;0.70;;;;;;;21.29;100.00;99598.31;5074560;28;20199;-73
2023/06/12 00:08:57;;;;;;;0.90;0.90;;;;;;;21.21;100.00;99604.72;5074930;28;20674;-74
2023/06/12 00:11:24;;;;;;;0.70;0.70;;;;;;;21.07;100.00;99606.97;5075314;28;20191;-74
2023/06/12 00:13:51;;;;;;;0.70;0.70;;;;;;;21.05;100.00;99597.38;5075044;28;20229;-74
2023/06/12 00:16:18;;;;;;;0.80;0.80;;;;;;;20.81;100.00;99590.31;5074630;28;20662;-73
2023/06/12 00:18:45;;;;;;;0.80;0.80;;;;;;;21.01;100.00;99606.31;5074906;28;20210;-75
2023/06/12 00:21:13;;;;;;;0.80;0.80;;;;;;;21.00;100.00;99613.38;5056493;28;20665;-74
2023/06/12 00:23:41;;;;;;;0.65;0.65;;;;;;;20.79;100.00;99600.94;5039588;28;20651;-74
2023/06/12 00:26:09;;;;;;;0.80;0.80;;;;;;;20.98;100.00;99601.13;5074285;28;20267;-75
2023/06/12 00:28:36;;;;;;;1.25;1.15;;;;;;;20.87;100.00;99598.88;5074295;28;20740;-72
2023/06/12 00:31:02;;;;;;;0.70;0.70;;;;;;;20.94;100.00;99602.19;5074587;28;20238;-72
2023/06/12 00:33:30;;;;;;;1.65;1.00;;;;;;;20.83;100.00;99597.28;5074500;28;20203;-72
2023/06/12 00:35:57;;;;;;;0.80;0.80;;;;;;;20.76;100.00;99593.13;5074293;28;20190;-72
2023/06/12 00:38:25;;;;;;;0.90;0.90;;;;;;;20.82;100.00;99600.81;5074112;28;20712;-73
2023/06/12 00:40:52;;;;;;;0.90;0.90;;;;;;;20.61;100.00;99585.75;5074750;28;20194;-73
2023/06/12 00:43:19;;;;;;;0.75;0.75;;;;;;;20.68;100.00;99587.25;5073811;28;20187;-72
2023/06/12 00:45:46;;;;;;;1.00;1.00;;;;;;;20.73;100.00;99601.13;5074441;28;20210;-72
2023/06/12 00:48:13;;;;;;;0.60;0.60;;;;;;;20.69;100.00;99599.53;5074203;28;20199;-72
2023/06/12 00:50:41;;;;;;;0.80;0.80;;;;;;;20.72;100.00;99594.16;5074718;28;20229;-73
2023/06/12 00:53:09;;;;;;;0.80;0.80;;;;;;;20.72;100.00;99579.22;5073953;28;20242;-72
2023/06/12 00:55:37;;;;;;;1.85;1.13;;;;;;;20.82;100.00;99600.81;5073226;28;20206;-74
2023/06/12 00:58:05;;;;;;;2.42;1.00;;;;;;;20.80;100.00;99602.63;5073692;28;20245;-72
2023/06/12 01:00:32;;;;;;;0.80;0.80;;;;;;;20.73;100.00;99583.53;5055792;28;20241;-72
2023/06/12 01:03:04;;;;;;;2.15;1.10;;;;;;;21.00;100.00;99594.91;5073892;28;20289;-72
2023/06/12 01:05:34;;;;;;;0.93;0.93;;;;;;;20.95;100.00;99606.50;5073523;28;20641;-73
2023/06/12 01:08:15;;;;;;;0.70;0.70;;;;;;;20.92;100.00;99612.75;5073324;28;20223;-72
2023/06/12 01:10:47;;;;;;;0.80;0.80;;;;;;;20.71;100.00;99588.00;5039040;28;20232;-72
2023/06/12 01:13:16;;;;;;;0.90;0.90;;;;;;;20.72;100.00;99586.25;5073554;28;20202;-72
2023/06/12 01:15:43;;;;;;;0.80;0.80;;;;;;;20.56;100.00;99608.72;5073230;28;20207;-72
2023/06/12 01:18:09;;;;;;;1.67;1.58;;;;;;;20.53;100.00;99607.06;5073860;28;20267;-72
2023/06/12 01:20:36;;;;;;;0.70;0.70;;;;;;;20.47;100.00;99606.41;5038701;28;20210;-72
2023/06/12 01:23:11;;;;;;;0.80;0.80;;;;;;;20.66;100.00;99607.50;5073331;28;20234;-72
2023/06/12 01:26:26;;;;;;;0.70;0.70;;;;;;;20.62;100.00;99612.03;5071286;28;20673;-72
2023/06/12 01:29:21;;;;;;;0.77;0.77;;;;;;;20.61;100.00;99610.31;5073234;28;20209;-72
2023/06/12 01:31:59;;;;;;;0.70;0.70;;;;;;;20.36;100.00;99605.91;5073498;28;20569;-71
2023/06/12 01:34:29;;;;;;;0.70;0.70;;;;;;;20.41;100.00;99614.50;5035513;28;20210;-72
2023/06/12 01:37:05;;;;;;;0.70;0.70;;;;;;;20.51;100.00;99606.25;5029841;28;20191;-71
2023/06/12 01:39:39;;;;;;;0.70;0.70;;;;;;;20.53;100.00;99611.47;5064751;28;20213;-71
2023/06/12 01:42:08;;;;;;;0.93;0.93;;;;;;;20.36;100.00;99625.19;5073390;28;20214;-71
2023/06/12 01:44:35;;;;;;;1.25;1.25;;;;;;;20.21;100.00;99610.72;5072945;28;20644;-73
2023/06/12 01:47:03;;;;;;;1.48;1.23;;;;;;;20.34;100.00;99612.97;5072942;28;20190;-71
2023/06/12 01:49:30;;;;;;;1.20;0.90;;;;;;;19.97;100.00;99587.78;5073239;28;20207;-71
2023/06/12 01:51:57;;;;;;;0.70;0.70;;;;;;;19.60;100.00;99551.22;5054357;28;20202;-71
2023/06/12 01:54:25;;;;;;;0.60;0.60;;;;;;;19.91;100.00;99592.34;5072993;28;20210;-71
2023/06/12 01:56:51;;;;;;;1.50;1.50;;;;;;;20.00;100.00;99624.53;5071794;28;20264;-71
2023/06/12 01:59:18;;;;;;;0.70;0.70;;;;;;;20.07;100.00;99626.06;5072770;28;20199;-72
2023/06/12 02:01:45;;;;;;;0.70;0.70;;;;;;;20.07;100.00;99635.75;5072217;28;20294;-72
2023/06/12 02:04:13;;;;;;;0.70;0.70;;;;;;;20.11;100.00;99632.09;5072545;28;20681;-71
2023/06/12 02:06:40;;;;;;;0.70;0.70;;;;;;;19.97;100.00;99629.91;5072943;28;20681;-71
2023/06/12 02:09:07;;;;;;;0.70;0.70;;;;;;;19.97;100.00;99635.16;5072498;28;20708;-73
2023/06/12 02:11:34;;;;;;;0.70;0.70;;;;;;;20.01;100.00;99635.94;5072327;28;20763;-71
2023/06/12 02:14:00;;;;;;;0.70;0.70;;;;;;;19.87;100.00;99640.75;5072716;28;20684;-73
2023/06/12 02:16:27;;;;;;;0.70;0.70;;;;;;;19.90;100.00;99641.53;5072594;28;20278;-73
2023/06/12 02:18:55;;;;;;;0.70;0.70;;;;;;;19.60;100.00;99584.53;5072237;28;20191;-73
2023/06/12 02:21:23;;;;;;;0.70;0.70;;;;;;;20.22;100.00;99651.94;5070886;28;20203;-72
2023/06/12 02:23:50;;;;;;;0.70;0.70;;;;;;;19.96;100.00;99643.97;5053106;28;20268;-73
2023/06/12 02:26:17;;;;;;;0.70;0.70;;;;;;;20.03;100.00;99634.97;5072331;28;20198;-72
2023/06/12 02:28:44;;;;;;;0.60;0.60;;;;;;;20.19;100.00;99657.25;5071801;28;20747;-72
2023/06/12 02:31:11;;;;;;;0.85;0.85;;;;;;;20.01;100.00;99657.00;5072248;28;20234;-72
2023/06/12 02:33:38;;;;;;;0.90;0.90;;;;;;;19.94;100.00;99629.97;5072653;28;20672;-72
2023/06/12 02:36:07;;;;;;;0.70;0.70;;;;;;;20.11;100.00;99648.78;5072222;28;20290;-72
2023/06/12 02:38:36;;;;;;;0.80;0.80;;;;;;;20.12;100.00;99650.47;5071210;28;20233;-72
2023/06/12 02:41:02;;;;;;;0.95;0.90;;;;;;;20.04;100.00;99652.50;5071429;28;20673;-72
2023/06/12 02:43:29;;;;;;;0.73;0.73;;;;;;;19.98;100.00;99650.03;5071412;28;20594;-71
2023/06/12 02:45:56;;;;;;;3.30;3.13;;;;;;;19.89;100.00;99663.47;5071871;28;20318;-71
2023/06/12 02:48:23;;;;;;;0.70;0.70;;;;;;;19.99;100.00;99664.06;5071660;28;20264;-71
2023/06/12 02:50:49;;;;;;;0.95;0.95;;;;;;;20.13;100.00;99678.53;5072028;28;20215;-73
2023/06/12 02:53:16;;;;;;;1.15;1.15;;;;;;;20.08;100.00;99677.78;5053090;28;20272;-71
2023/06/12 02:55:44;;;;;;;0.90;0.90;;;;;;;20.22;100.00;99675.63;5071146;28;20630;-71
2023/06/12 02:58:11;;;;;;;1.02;1.02;;;;;;;20.02;100.00;99688.50;5052267;28;20253;-73
2023/06/12 03:00:38;;;;;;;0.70;0.70;;;;;;;19.89;100.00;99644.19;5065801;28;20199;-72
2023/06/12 03:03:06;;;;;;;0.60;0.60;;;;;;;20.07;100.00;99662.94;5071640;28;20256;-72
2023/06/12 03:05:36;;;;;;;0.93;0.93;;;;;;;20.20;100.00;99690.59;5071828;28;20673;-72
2023/06/12 03:08:03;;;;;;;0.70;0.70;;;;;;;20.12;100.00;99665.44;5071026;28;20246;-72
2023/06/12 03:10:30;;;;;;;1.10;1.10;;;;;;;20.13;100.00;99683.78;5036543;28;20251;-72
2023/06/12 03:12:58;;;;;;;0.73;0.73;;;;;;;20.07;100.00;99683.97;5071157;28;20191;-72
2023/06/12 03:15:26;;;;;;;0.90;0.90;;;;;;;19.97;100.00;99677.28;5068335;28;20301;-72
2023/06/12 03:17:53;;;;;;;0.80;0.80;;;;;;;19.96;100.00;99686.06;5071043;28;20203;-72
2023/06/12 03:20:20;;;;;;;0.70;0.70;;;;;;;19.76;100.00;99657.69;5071066;28;20201;-72
2023/06/12 03:22:46;;;;;;;0.70;0.70;;;;;;;19.79;100.00;99691.84;5070907;28;20209;-73
2023/06/12 03:25:18;;;;;;;2.85;1.23;;;;;;;19.76;100.00;99686.63;5071289;28;20206;-73
2023/06/12 03:27:45;;;;;;;0.80;0.80;;;;;;;19.76;100.00;99677.91;5069345;28;20739;-73
2023/06/12 03:30:14;;;;;;;0.70;0.70;;;;;;;19.43;100.00;99621.00;5070513;28;20229;-72
2023/06/12 03:32:41;;;;;;;0.70;0.70;;;;;;;19.33;100.00;99630.00;5070766;28;20202;-73
2023/06/12 03:35:09;;;;;;;0.80;0.80;;;;;;;19.88;100.00;99701.22;5071028;28;20210;-73
2023/06/12 03:37:35;;;;;;;0.82;0.82;;;;;;;19.71;100.00;99708.72;5071710;28;20733;-73
2023/06/12 03:40:03;;;;;;;3.63;3.30;;;;;;;19.82;100.00;99706.66;5071214;28;20652;-73
2023/06/12 03:42:30;;;;;;;0.80;0.80;;;;;;;19.76;100.00;99688.44;5071047;28;20198;-73
2023/06/12 03:44:57;;;;;;;0.80;0.80;;;;;;;19.96;100.00;99685.19;5071435;28;20199;-73
2023/06/12 03:47:25;;;;;;;0.63;0.63;;;;;;;20.11;100.00;99711.06;5071240;28;20252;-73
2023/06/12 03:49:52;;;;;;;1.25;1.25;;;;;;;19.84;100.00;99706.59;5070930;28;20207;-73
2023/06/12 03:52:19;;;;;;;1.10;1.10;;;;;;;19.82;100.00;99693.50;5071662;28;20202;-73
2023/06/12 03:54:46;;;;;;;0.98;0.95;;;;;;;19.94;100.00;99698.38;5071173;28;20199;-73
2023/06/12 03:57:13;;;;;;;0.70;0.70;;;;;;;20.12;100.00;99716.28;5034754;28;20203;-73
2023/06/12 03:59:39;;;;;;;0.60;0.60;;;;;;;20.17;100.00;99718.78;5036291;28;20264;-73
2023/06/12 04:02:06;;;;;;;0.80;0.80;;;;;;;20.29;100.00;99721.09;5066984;28;20199;-73
2023/06/12 04:04:35;;;;;;;1.23;1.23;;;;;;;20.46;100.00;99710.91;5070921;28;20199;-73
2023/06/12 04:07:01;;;;;;;0.80;0.80;;;;;;;20.38;100.00;99714.66;5071204;28;20260;-73
2023/06/12 04:09:28;;;;;;;1.73;1.63;;;;;;;20.36;100.00;99716.50;5070852;28;20290;-73
2023/06/12 04:11:56;;;;;;;1.30;1.25;;;;;;;20.21;100.00;99713.38;5070675;28;20715;-74
2023/06/12 04:14:22;;;;;;;0.77;0.77;;;;;;;20.06;100.00;99724.38;5071284;28;20226;-74
2023/06/12 04:16:49;;;;;;;0.60;0.60;;;;;;;20.14;100.00;99719.75;5069222;28;20270;-76
2023/06/12 04:19:17;;;;;;;0.80;0.80;;;;;;;20.27;100.00;99718.50;5066521;28;20203;-74
2023/06/12 04:21:45;;;;;;;1.25;1.15;;;;;;;20.57;100.00;99723.72;5068401;28;20194;-73
2023/06/12 04:24:15;;;;;;;1.33;1.23;;;;;;;20.37;100.00;99713.81;5070545;28;20195;-73
2023/06/12 04:26:46;;;;;;;0.80;0.80;;;;;;;20.54;100.00;99729.97;5068121;28;20195;-74
2023/06/12 04:29:13;;;;;;;0.73;0.73;;;;;;;20.70;100.00;99732.97;5070346;28;20673;-72
2023/06/12 04:31:39;;;;;;;0.70;0.70;;;;;;;20.59;100.00;99714.00;5070889;28;20226;-73
2023/06/12 04:34:07;;;;;;;0.70;0.70;;;;;;;20.72;100.00;99741.69;5070776;28;20203;-73
2023/06/12 04:36:37;;;;;;;0.70;0.70;;;;;;;20.51;100.00;99722.13;5071072;28;20206;-73
2023/06/12 04:39:05;;;;;;;0.93;0.93;;;;;;;20.69;100.00;99737.38;5070737;28;20202;-74
2023/06/12 04:41:33;;;;;;;1.10;1.10;;;;;;;20.52;100.00;99738.81;5070718;28;20207;-75
2023/06/12 04:44:00;;;;;;;0.68;0.68;;;;;;;20.48;100.00;99716.97;5070839;28;20199;-73
2023/06/12 04:46:27;;;;;;;0.80;0.80;;;;;;;20.72;100.00;99745.22;5069327;28;20210;-73
2023/06/12 04:48:54;;;;;;;0.70;0.70;;;;;;;20.68;100.00;99746.22;5038886;28;20197;-72
2023/06/12 04:51:23;;;;;;;0.70;0.70;;;;;;;20.85;100.00;99750.94;5071329;28;20238;-74
2023/06/12 04:53:53;;;;;;;0.70;0.70;;;;;;;20.57;100.00;99742.19;5071596;28;20619;-73
2023/06/12 04:56:22;;;;;;;1.08;1.00;;;;;;;20.76;100.00;99741.53;5072819;28;20277;-73
2023/06/12 04:58:49;;;;;;;0.80;0.80;;;;;;;20.54;100.00;99737.00;5072985;28;20226;-75
2023/06/12 05:01:21;;;;;;;0.80;0.80;;;;;;;20.74;100.00;99739.88;5053693;28;20286;-75
2023/06/12 05:03:49;;;;;;;5.25;1.55;;;;;;;20.89;100.00;99739.38;5025725;28;20199;-74
2023/06/12 05:06:16;;;;;;;0.77;0.77;;;;;;;20.37;100.00;99669.03;5073937;28;20199;-74
2023/06/12 05:08:43;;;;;;;0.80;0.80;;;;;;;20.80;100.00;99734.41;5073716;28;20294;-73
2023/06/12 05:11:10;;;;;;;0.82;0.82;;;;;;;21.05;100.00;99739.72;5062161;28;20229;-73
2023/06/12 05:13:39;;;;;;;1.00;1.00;;;;;;;21.04;100.00;99746.81;5060746;28;20195;-72
2023/06/12 05:16:05;;;;;;;3.85;1.15;;;;;;;20.94;100.00;99740.06;5067973;28;20678;-72
2023/06/12 05:18:32;;;;;;;0.80;0.80;;;;;;;21.10;100.00;99743.09;5060008;28;20203;-72
2023/06/12 05:20:59;;;;;;;0.70;0.70;;;;;;;21.06;100.00;99721.22;5073659;28;20207;-73
2023/06/12 05:23:26;;;;;;;0.90;0.90;;;;;;;21.06;100.00;99734.41;5073446;28;20209;-73
2023/06/12 05:25:53;;;;;;;1.25;1.10;;;;;;;20.99;100.00;99735.53;5073324;28;20639;-73
2023/06/12 05:28:20;;;;;;;2.28;1.55;;;;;;;20.94;100.00;99740.06;5051255;28;20206;-73
2023/06/12 05:30:48;;;;;;;0.93;0.93;;;;;;;21.17;100.00;99742.00;5062139;28;20253;-71
2023/06/12 05:33:15;;;;;;;0.70;0.70;;;;;;;21.02;100.00;99727.50;5059953;28;20586;-72
2023/06/12 05:35:43;;;;;;;1.08;1.08;;;;;;;20.91;100.00;99742.81;5067564;28;20195;-73
2023/06/12 05:38:10;;;;;;;0.70;0.70;;;;;;;20.77;100.00;99723.97;5060250;28;20256;-73
2023/06/12 05:40:37;;;;;;;0.80;0.80;;;;;;;20.92;100.00;99744.56;5058275;28;20200;-73
2023/06/12 05:43:04;;;;;;;2.05;1.00;;;;;;;20.92;100.00;99731.38;5071045;28;20203;-76
2023/06/12 05:45:30;;;;;;;0.60;0.60;;;;;;;20.83;100.00;99734.31;5072987;28;20219;-73
2023/06/12 05:47:59;;;;;;;0.75;0.75;;;;;;;21.42;100.00;99747.31;5072916;28;20203;-72
2023/06/12 05:50:25;;;;;;;0.70;0.70;;;;;;;21.29;100.00;99746.00;5037658;28;20202;-72
2023/06/12 05:52:52;;;;;;;0.90;0.90;;;;;;;21.26;100.00;99750.44;5056587;28;20728;-74
2023/06/12 05:55:19;;;;;;;1.08;1.08;;;;;;;21.06;100.00;99747.59;5058277;28;20203;-72
2023/06/12 05:57:46;;;;;;;0.80;0.80;;;;;;;21.02;100.00;99750.38;5050939;28;20211;-73
2023/06/12 06:00:14;;;;;;;0.80;0.80;;;;;;;21.21;100.00;99743.63;5058559;28;20202;-73
2023/06/12 06:02:42;;;;;;;0.90;0.90;;;;;;;21.00;100.00;99737.25;5034644;28;20205;-72
2023/06/12 06:05:11;;;;;;;0.90;0.90;;;;;;;21.06;100.00;99747.59;5054530;28;20219;-72
2023/06/12 06:07:38;;;;;;;0.70;0.70;;;;;;;20.93;100.00;99738.38;5037029;28;20293;-72
2023/06/12 06:10:06;;;;;;;0.80;0.80;;;;;;;20.97;100.00;99703.09;5057020;28;20196;-72
2023/06/12 06:12:33;;;;;;;1.13;1.00;;;;;;;21.22;100.00;99754.09;5072080;28;20218;-73
2023/06/12 06:15:00;;;;;;;0.95;0.88;;;;;;;21.21;100.00;99736.59;5072320;28;20214;-73
2023/06/12 06:17:26;;;;;;;0.60;0.60;;;;;;;21.14;100.00;99734.19;5072042;28;20211;-74
2023/06/12 06:19:53;;;;;;;0.70;0.70;;;;;;;21.37;100.00;99752.72;5053546;28;20210;-72
2023/06/12 06:22:24;;;;;;;3.25;1.25;;;;;;;21.24;100.00;99747.03;5072206;28;20207;-74
2023/06/12 06:24:51;;;;;;;0.80;0.80;;;;;;;21.37;100.00;99757.16;5058820;28;20569;-74
2023/06/12 06:27:18;;;;;;;0.70;0.70;;;;;;;21.41;100.00;99753.47;5069554;28;20213;-77
2023/06/12 06:29:44;;;;;;;0.60;0.60;;;;;;;21.64;100.00;99756.19;5060674;28;20231;-78
2023/06/12 06:32:11;;;;;;;0.80;0.80;;;;;;;21.64;100.00;99757.06;5069702;28;20226;-76
2023/06/12 06:34:38;;;;;;;1.50;1.50;;;;;;;21.82;100.00;99765.25;5071099;28;20199;-80
2023/06/12 06:37:06;;;;;;;0.90;0.90;;;;;;;21.76;100.00;99763.66;5072348;28;20194;-77
2023/06/12 06:39:34;;;;;;;0.80;0.80;;;;;;;21.96;100.00;99763.88;5072346;28;20217;-79
2023/06/12 06:42:01;;;;;;;0.75;0.75;;;;;;;21.59;100.00;99763.41;5056741;28;20194;-79
2023/06/12 06:44:28;;;;;;;0.80;0.80;;;;;;;21.65;100.00;99768.50;5063093;28;20207;-76
2023/06/12 06:46:55;;;;;;;0.70;0.70;;;;;;;21.64;100.00;99772.91;5048021;28;20666;-76
2023/06/12 06:49:22;;;;;;;0.80;0.80;;;;;;;21.83;100.00;99773.09;5029368;28;20604;-75
2023/06/12 06:51:49;;;;;;;0.80;0.80;;;;;;;22.35;100.00;99781.78;5051496;28;20756;-76
2023/06/12 06:54:16;;;;;;;0.70;0.70;;;;;;;22.23;100.00;99783.97;5069287;28;20206;-76
2023/06/12 06:56:44;;;;;;;1.17;1.17;;;;;;;22.57;100.00;99761.56;5036441;28;20259;-75
2023/06/12 06:59:11;;;;;;;0.73;0.73;;;;;;;22.34;100.00;99786.19;5071419;28;20709;-76
2023/06/12 07:01:39;;;;;;;0.95;0.95;;;;;;;22.44;100.00;99784.94;5071809;28;20202;-74
2023/06/12 07:04:06;;;;;;;0.70;0.70;;;;;;;22.15;100.00;99786.00;5071449;28;20205;-77
2023/06/12 07:06:33;;;;;;;0.70;0.70;;;;;;;22.23;100.00;99788.38;5064595;28;20286;-75
2023/06/12 07:09:00;;;;;;;0.60;0.60;;;;;;;22.49;100.00;99785.63;5062276;28;20204;-76
2023/06/12 07:11:27;;;;;;;0.80;0.80;;;;;;;22.49;100.00;99779.47;5070319;28;20650;-74
2023/06/12 07:13:55;;;;;;;0.80;0.80;;;;;;;22.76;100.00;99770.50;5071369;28;20684;-76
2023/06/12 07:16:22;;;;;;;0.70;0.70;;;;;;;22.48;100.00;99778.59;5068867;28;20290;-74
2023/06/12 07:18:49;;;;;;;0.65;0.65;;;;;;;22.52;100.00;99763.50;5056260;28;20660;-75
2023/06/12 07:21:17;;;;;;;0.70;0.70;;;;;;;22.97;100.00;99787.31;5057698;28;20199;-76
2023/06/12 07:23:44;;;;;;;0.70;0.70;;;;;;;23.35;100.00;99788.38;5065505;28;20204;-75
2023/06/12 07:26:11;;;;;;;0.80;0.80;;;;;;;23.40;100.00;99787.25;5022072;28;20298;-74
2023/06/12 07:28:38;;;;;;;4.70;1.23;;;;;;;23.28;100.00;99786.91;5056117;28;20711;-75
2023/06/12 07:31:06;;;;;;;0.70;0.70;;;;;;;23.50;100.00;99793.94;5058354;28;20245;-74
2023/06/12 07:33:32;;;;;;;1.08;1.08;;;;;;;23.21;100.00;99763.38;5067492;28;20599;-74
2023/06/12 07:35:59;;;;;;;0.93;0.93;;;;;;;23.23;100.00;99772.09;5070049;28;20701;-75
2023/06/12 07:38:26;;;;;;;0.90;0.90;;;;;;;23.51;100.00;99785.03;5062722;28;20207;-75
2023/06/12 07:40:53;;;;;;;0.70;0.70;;;;;;;23.70;100.00;99780.69;5059303;28;20203;-75
2023/06/12 07:43:19;;;;;;;0.70;0.70;;;;;;;23.76;100.00;99790.13;5058348;28;20647;-75
2023/06/12 07:45:47;;;;;;;0.70;0.70;;;;;;;23.98;100.00;99785.63;5054973;28;20203;-75
2023/06/12 07:48:15;;;;;;;0.60;0.60;;;;;;;24.26;100.00;99795.88;5057769;28;20674;-75
2023/06/12 07:50:42;;;;;;;0.82;0.82;;;;;;;24.46;100.00;99792.31;5065806;28;20195;-75
2023/06/12 07:53:09;;;;;;;0.70;0.70;;;;;;;24.76;99.20;99790.88;5067614;28;20222;-75
2023/06/12 07:55:36;;;;;;;0.60;0.60;;;;;;;24.78;100.00;99793.47;5066841;28;20195;-75
2023/06/12 07:58:03;;;;;;;0.60;0.60;;;;;;;24.67;99.86;99778.06;5070275;28;20252;-74
2023/06/12 08:00:30;;;;;;;0.60;0.60;;;;;;;24.40;100.00;99796.09;5057540;28;20207;-76
2023/06/12 08:02:58;;;;;;;0.70;0.70;;;;;;;24.65;98.22;99798.47;5071036;28;20202;-75
2023/06/12 08:05:27;;;;;;;0.70;0.70;;;;;;;25.04;94.97;99769.25;5070808;28;20202;-73
2023/06/12 08:07:54;;;;;;;0.70;0.70;;;;;;;25.15;96.36;99794.28;5068109;28;20195;-73
2023/06/12 08:10:21;;;;;;;0.70;0.70;;;;;;;25.23;94.48;99785.94;5060144;28;20628;-75
2023/06/12 08:12:48;;;;;;;0.68;0.68;;;;;;;24.48;99.65;99790.44;5069574;28;20229;-77
2023/06/12 08:15:15;;;;;;;1.02;1.02;;;;;;;24.78;95.46;99773.13;5035541;28;20203;-76
2023/06/12 08:17:42;;;;;;;0.70;0.70;;;;;;;24.98;93.37;99781.00;5056975;28;20265;-75
2023/06/12 08:20:10;;;;;;;0.70;0.70;;;;;;;24.95;93.68;99783.78;5068947;28;20230;-74
2023/06/12 08:22:38;;;;;;;0.70;0.70;;;;;;;25.46;91.35;99787.47;5071676;28;20211;-75
2023/06/12 08:25:06;;;;;;;0.70;0.70;;;;;;;24.93;95.65;99772.41;5074454;28;20259;-75
2023/06/12 08:27:33;;;;;;;0.70;0.70;;;;;;;25.00;91.80;99783.59;5072234;28;20234;-74
2023/06/12 08:30:00;;;;;;;1.05;1.05;;;;;;;24.69;94.23;99773.53;5069811;28;20234;-75
2023/06/12 08:32:27;;;;;;;5.93;1.15;;;;;;;24.71;94.18;99774.34;5073839;28;20221;-74
2023/06/12 08:34:54;;;;;;;0.70;0.70;;;;;;;25.13;93.34;99777.59;5071517;28;20195;-75
2023/06/12 08:37:21;;;;;;;0.70;0.70;;;;;;;24.76;94.24;99769.66;5074193;28;20199;-75
2023/06/12 08:39:49;;;;;;;0.88;0.88;;;;;;;24.72;96.93;99783.16;5055369;28;20206;-75
2023/06/12 08:42:17;;;;;;;0.63;0.63;;;;;;;25.26;93.79;99774.31;5071607;28;20199;-75
2023/06/12 08:44:46;;;;;;;0.70;0.70;;;;;;;25.57;89.24;99775.41;5073785;28;20582;-74
2023/06/12 08:47:14;;;;;;;0.70;0.70;;;;;;;25.11;92.77;99770.66;5071340;28;20577;-75
2023/06/12 08:49:40;;;;;;;0.60;0.60;;;;;;;25.03;90.62;99757.75;5073711;28;20301;-75
2023/06/12 08:52:09;;;;;;;0.80;0.80;;;;;;;24.84;93.72;99764.03;5073956;28;20219;-75
2023/06/12 08:54:37;;;;;;;0.70;0.70;;;;;;;25.25;89.84;99772.63;5071365;28;20285;-75
2023/06/12 08:57:07;;;;;;;0.65;0.65;;;;;;;24.88;92.40;99769.13;5074120;28;20203;-75
2023/06/12 08:59:34;;;;;;;0.80;0.80;;;;;;;25.02;94.06;99771.09;5073863;28;20623;-75
2023/06/12 09:02:02;;;;;;;0.70;0.70;;;;;;;25.61;90.07;99768.13;5068712;28;20254;-75
2023/06/12 09:04:37;;;;;;;1.05;1.05;;;;;;;25.86;87.79;99751.78;5072760;28;20226;-75
2023/06/12 09:07:04;;;;;;;0.70;0.70;;;;;;;25.80;87.71;99768.88;5073355;28;20209;-75
2023/06/12 09:09:38;;;;;;;0.70;0.70;;;;;;;25.87;85.53;99772.94;5094913;28;20194;-75
2023/06/12 09:12:12;;;;;;;0.70;0.70;;;;;;;25.76;87.68;99769.97;5073538;28;20250;-75
2023/06/12 09:14:40;;;;;;;1.02;1.02;;;;;;;25.29;88.62;99739.69;5060445;28;20195;-74
2023/06/12 09:17:09;;;;;;;0.60;0.60;;;;;;;25.42;90.20;99744.28;5072329;28;20607;-75
2023/06/12 09:19:37;;;;;;;0.70;0.70;;;;;;;25.25;89.38;99757.56;5059461;28;20203;-74
2023/06/12 09:22:05;;;;;;;1.20;1.20;;;;;;;25.82;86.31;99759.06;5070351;28;20199;-77
2023/06/12 09:24:32;;;;;;;0.70;0.70;;;;;;;26.06;83.98;99754.22;5063018;28;20207;-75
2023/06/12 09:26:59;;;;;;;0.70;0.70;;;;;;;25.54;85.10;99753.47;5073359;28;20283;-74
2023/06/12 09:29:32;;;;;;;3.95;2.00;;;;;;;25.73;86.52;99754.19;5073307;28;20213;-74
2023/06/12 09:31:59;;;;;;;0.70;0.70;;;;;;;25.77;87.48;99749.59;5058405;28;20683;-74
2023/06/12 09:34:26;;;;;;;0.60;0.60;;;;;;;26.24;85.58;99758.59;5073825;28;20231;-75
2023/06/12 09:36:53;;;;;;;1.13;1.13;;;;;;;26.01;86.71;99756.25;5037782;28;20642;-75
2023/06/12 09:39:27;;;;;;;0.60;0.60;;;;;;;25.76;84.44;99748.72;5073031;28;20217;-75
2023/06/12 09:41:55;;;;;;;0.70;0.70;;;;;;;25.38;85.93;99686.97;5073089;28;20234;-74
2023/06/12 09:44:23;;;;;;;0.50;0.50;;;;;;;25.71;87.09;99748.13;5072917;28;20308;-75
2023/06/12 09:46:52;;;;;;;0.70;0.70;;;;;;;25.59;86.93;99748.75;5073151;28;20203;-74
2023/06/12 09:49:22;;;;;;;0.50;0.50;;;;;;;25.74;86.30;99742.66;5058847;28;20207;-75
2023/06/12 09:51:50;;;;;;;0.70;0.70;;;;;;;25.59;84.77;99743.44;5054842;28;20207;-74
2023/06/12 09:54:18;;;;;;;0.60;0.60;;;;;;;25.70;85.73;99741.09;5072702;28;20286;-73
2023/06/12 09:56:46;;;;;;;0.70;0.70;;;;;;;25.58;85.87;99717.81;5072926;28;20271;-77
2023/06/12 09:59:18;;;;;;;0.70;0.70;;;;;;;25.60;84.89;99714.16;5072849;28;20207;-74
2023/06/12 10:01:49;;;;;;;0.70;0.70;;;;;;;26.10;83.62;99727.41;5073409;28;20654;-76
2023/06/12 10:04:23;;;;;;;0.93;0.93;;;;;;;26.17;80.94;99721.75;5073485;28;20214;-77
2023/06/12 10:06:52;;;;;;;1.00;1.00;;;;;;;25.67;83.30;99722.66;5061036;28;20267;-78
2023/06/12 10:09:20;;;;;;;0.75;0.75;;;;;;;26.01;82.95;99722.56;5073649;28;20592;-78
2023/06/12 10:11:49;;;;;;;0.70;0.70;;;;;;;26.48;81.46;99701.38;5073176;28;20190;-81
2023/06/12 10:14:18;;;;;;;0.70;0.70;;;;;;;26.81;74.94;99733.19;5061628;28;20199;-79
2023/06/12 10:16:47;;;;;;;0.95;0.95;;;;;;;26.52;76.60;99723.34;5071123;28;20206;-76
2023/06/12 10:19:15;;;;;;;0.60;0.60;;;;;;;26.16;79.05;99720.88;5037018;28;20198;-74
2023/06/12 10:21:45;;;;;;;0.73;0.73;;;;;;;26.49;79.03;99718.19;5072427;28;20294;-75
2023/06/12 10:24:12;;;;;;;0.80;0.80;;;;;;;26.25;79.05;99708.94;5072691;28;20282;-75
2023/06/12 10:26:39;;;;;;;0.70;0.70;;;;;;;26.29;78.24;99715.81;5072680;28;20199;-76
2023/06/12 10:29:27;;;;;;;0.70;0.70;;;;;;;26.81;78.71;99717.25;5072436;28;20198;-76
2023/06/12 10:31:54;;;;;;;0.80;0.80;;;;;;;26.65;75.16;99708.41;5072362;28;20201;-75
2023/06/12 10:34:21;;;;;;;0.70;0.70;;;;;;;26.85;75.13;99710.84;5072393;28;20284;-76
2023/06/12 10:36:49;;;;;;;0.75;0.75;;;;;;;27.02;73.80;99716.03;5072475;28;20254;-77
2023/06/12 10:39:17;;;;;;;0.60;0.60;;;;;;;27.22;72.08;99711.34;5072359;28;20669;-76
2023/06/12 10:41:57;;;;;;;0.68;0.68;;;;;;;26.79;73.48;99716.44;5072198;28;20581;-75
2023/06/12 10:44:41;;;;;;;0.60;0.60;;;;;;;26.51;75.58;99714.50;5071456;28;20297;-76
2023/06/12 10:47:19;;;;;;;0.60;0.60;;;;;;;26.75;76.89;99719.41;5072176;28;20195;-75
2023/06/12 10:49:56;;;;;;;1.08;1.00;;;;;;;26.67;75.44;99721.63;5072143;28;20685;-75
2023/06/12 10:52:25;;;;;;;0.60;0.60;;;;;;;27.17;74.76;99713.41;5071752;28;20284;-75
2023/06/12 10:55:20;;;;;;;0.80;0.80;;;;;;;27.26;70.45;99710.19;5036860;28;20278;-75
2023/06/12 10:57:53;;;;;;;0.63;0.63;;;;;;;27.17;71.26;99705.44;5029885;28;20294;-75
2023/06/12 11:00:22;;;;;;;0.60;0.60;;;;;;;26.98;71.73;99703.84;5030003;28;20203;-74
2023/06/12 11:02:58;;;;;;;0.70;0.70;;;;;;;27.30;73.22;99691.28;5029660;28;20207;-75
2023/06/12 11:05:25;;;;;;;0.70;0.70;;;;;;;27.07;72.25;99708.66;5030080;28;20223;-75
2023/06/12 11:07:55;;;;;;;0.60;0.60;;;;;;;27.71;70.39;99696.81;5029825;28;20211;-73
2023/06/12 11:10:22;;;;;;;0.65;0.65;;;;;;;27.34;69.30;99684.84;5029790;28;20211;-73
2023/06/12 11:12:49;;;;;;;0.70;0.70;;;;;;;27.72;67.96;99689.69;5012995;28;20231;-74
2023/06/12 11:15:16;;;;;;;0.70;0.70;;;;;;;27.94;66.41;99698.06;5029539;28;20681;-74
2023/06/12 11:17:43;;;;;;;0.60;0.60;;;;;;;28.05;64.09;99688.44;5029576;28;20212;-76
2023/06/12 11:20:11;;;;;;;1.20;1.02;;;;;;;28.13;64.62;99687.13;5029530;28;20591;-74
2023/06/12 11:22:37;;;;;;;0.70;0.70;;;;;;;28.07;64.79;99689.22;4980489;28;20207;-74
2023/06/12 11:25:06;;;;;;;0.80;0.80;;;;;;;28.66;62.28;99697.00;5029324;28;20196;-73
2023/06/12 11:27:36;;;;;;;0.75;0.75;;;;;;;27.91;63.61;99698.25;5029321;28;20250;-73
2023/06/12 11:30:13;;;;;;;0.70;0.70;;;;;;;28.21;63.32;99680.38;5029188;28;20323;-73
2023/06/12 11:32:40;;;;;;;0.60;0.60;;;;;;;27.57;64.81;99656.84;5029297;28;20354;-73